Time;durP1;ratioP1;P1;durP2;ratioP2;P2;SDS_P1;SDS_P2;PMS_P1;PMS_P2;Temp;Humidity;BMP_temperature;BMP_pressure;BME280_temperature;BME280_humidity;BME280_pressure;Samples;Min_cycle;Max_cycle;Signal;HPM_P1;HPM_P2
2022/12/18 00:01:31;;;;;;;36.63;25.30;;;-8.80;99.90;;;;;;5076159;28;20173;-65
2022/12/18 00:03:57;;;;;;;34.00;27.00;;;-8.80;99.90;;;;;;5076700;28;20610;-66
2022/12/18 00:06:24;;;;;;;33.93;26.77;;;-8.80;99.90;;;;;;5095378;28;20173;-65
2022/12/18 00:08:50;;;;;;;38.97;28.37;;;-8.80;99.90;;;;;;5076733;28;20173;-65
2022/12/18 00:11:19;;;;;;;33.03;27.60;;;-8.90;99.90;;;;;;5094263;28;20188;-65
2022/12/18 00:13:45;;;;;;;39.87;28.37;;;-8.90;99.90;;;;;;5093834;28;20570;-65
2022/12/18 00:16:14;;;;;;;40.70;29.83;;;-9.00;99.90;;;;;;5075653;28;20263;-65
2022/12/18 00:18:40;;;;;;;33.90;28.77;;;-9.00;99.90;;;;;;5093677;28;20303;-65
2022/12/18 00:21:09;;;;;;;31.57;26.33;;;-9.00;99.90;;;;;;5094355;28;20170;-65
2022/12/18 00:23:36;;;;;;;37.97;27.07;;;-9.10;99.90;;;;;;5093496;28;20232;-65
2022/12/18 00:26:05;;;;;;;32.47;25.73;;;-9.00;99.90;;;;;;5093744;28;20226;-65
2022/12/18 00:28:32;;;;;;;36.97;28.57;;;-9.10;99.90;;;;;;5075588;28;20187;-65
2022/12/18 00:31:04;;;;;;;41.57;28.87;;;-9.10;99.90;;;;;;5075619;28;20207;-65
2022/12/18 00:33:31;;;;;;;47.33;33.07;;;-9.10;99.90;;;;;;5093360;28;20202;-65
2022/12/18 00:36:05;;;;;;;41.10;28.63;;;-9.20;99.90;;;;;;5075593;28;20173;-65
2022/12/18 00:38:31;;;;;;;32.97;27.67;;;-9.20;99.90;;;;;;5075554;28;20179;-65
2022/12/18 00:40:57;;;;;;;39.93;28.50;;;-9.10;99.90;;;;;;5093752;28;20226;-65
2022/12/18 00:43:23;;;;;;;28.73;25.83;;;-9.10;99.90;;;;;;5097854;28;20203;-65
2022/12/18 00:45:48;;;;;;;37.17;29.10;;;-9.10;99.90;;;;;;5097727;28;20168;-65
2022/12/18 00:48:14;;;;;;;40.47;29.07;;;-9.10;99.90;;;;;;5097936;28;20206;-67
2022/12/18 00:50:40;;;;;;;38.57;29.27;;;-9.10;99.90;;;;;;5079262;28;20172;-65
2022/12/18 00:53:06;;;;;;;49.87;32.07;;;-9.20;99.90;;;;;;5097548;28;20707;-65
2022/12/18 00:55:32;;;;;;;41.93;28.67;;;-9.20;99.90;;;;;;5079497;28;20200;-65
2022/12/18 00:57:57;;;;;;;37.30;27.73;;;-9.20;99.90;;;;;;5097835;28;20177;-64
2022/12/18 01:00:23;;;;;;;48.03;32.30;;;-9.20;99.90;;;;;;5097998;28;20302;-65
2022/12/18 01:02:49;;;;;;;45.50;34.10;;;-9.20;99.90;;;;;;5097623;28;20189;-65
2022/12/18 01:05:15;;;;;;;32.50;26.90;;;-9.20;99.90;;;;;;5097327;28;20208;-65
2022/12/18 01:07:41;;;;;;;38.37;28.03;;;-9.10;99.90;;;;;;5097365;28;20177;-65
2022/12/18 01:10:09;;;;;;;32.87;26.50;;;-9.10;99.90;;;;;;5097117;28;20196;-65
2022/12/18 01:12:34;;;;;;;31.47;26.20;;;-9.10;99.90;;;;;;5078902;28;20188;-65
2022/12/18 01:15:00;;;;;;;38.33;28.87;;;-9.10;99.90;;;;;;5078859;28;20262;-65
2022/12/18 01:17:26;;;;;;;34.83;25.87;;;-9.10;99.90;;;;;;5078831;28;20195;-65
2022/12/18 01:19:52;;;;;;;34.70;27.80;;;-9.10;99.90;;;;;;5096939;28;20165;-65
2022/12/18 01:22:18;;;;;;;38.20;26.30;;;-9.10;99.90;;;;;;5096767;28;20181;-65
2022/12/18 01:24:43;;;;;;;41.97;27.83;;;-9.00;99.90;;;;;;5078607;28;20209;-65
2022/12/18 01:27:09;;;;;;;36.73;28.53;;;-9.00;99.90;;;;;;5078615;28;20641;-65
2022/12/18 01:29:35;;;;;;;32.17;28.67;;;-9.00;99.90;;;;;;5096820;28;20177;-65
2022/12/18 01:32:00;;;;;;;33.23;27.20;;;-9.00;99.90;;;;;;5078530;28;20215;-65
2022/12/18 01:34:26;;;;;;;38.03;29.37;;;-9.10;99.90;;;;;;5096404;28;20228;-65
2022/12/18 01:36:52;;;;;;;35.40;28.37;;;-9.20;99.90;;;;;;5096562;28;20165;-66
2022/12/18 01:39:18;;;;;;;31.20;25.90;;;-9.20;99.90;;;;;;5078367;28;20183;-65
2022/12/18 01:42:02;;;;;;;28.67;25.50;;;-9.10;99.90;;;;;;5096531;28;20222;-65
2022/12/18 01:44:47;;;;;;;39.93;27.17;;;-9.10;99.90;;;;;;5096913;28;20195;-65
2022/12/18 01:47:23;;;;;;;44.30;30.53;;;-9.10;99.90;;;;;;5096702;28;20177;-65
2022/12/18 01:49:49;;;;;;;34.90;25.53;;;-9.20;99.90;;;;;;5078140;28;20176;-65
2022/12/18 01:52:17;;;;;;;34.47;26.20;;;-9.20;99.90;;;;;;5096544;28;20169;-65
2022/12/18 01:54:45;;;;;;;36.20;26.83;;;-9.10;99.90;;;;;;5076937;28;20224;-65
2022/12/18 01:57:11;;;;;;;35.67;26.67;;;-9.20;99.90;;;;;;5078038;28;20237;-65
2022/12/18 01:59:38;;;;;;;34.37;26.50;;;-9.20;99.90;;;;;;5096582;28;20204;-65
2022/12/18 02:02:04;;;;;;;29.83;26.03;;;-9.20;99.90;;;;;;5077996;28;20177;-65
2022/12/18 02:04:30;;;;;;;33.13;26.83;;;-9.10;99.90;;;;;;5077828;28;20197;-65
2022/12/18 02:07:24;;;;;;;33.97;28.50;;;-9.10;99.90;;;;;;5096153;28;20173;-65
2022/12/18 02:10:14;;;;;;;37.47;27.60;;;-9.10;99.90;;;;;;5096034;28;20166;-66
2022/12/18 02:12:52;;;;;;;37.67;27.40;;;-9.10;99.90;;;;;;5077796;28;20173;-65
2022/12/18 02:15:28;;;;;;;30.47;24.73;;;-9.10;99.90;;;;;;5095733;28;20196;-65
2022/12/18 02:17:56;;;;;;;32.47;26.03;;;-9.10;99.90;;;;;;5096099;28;20613;-65
2022/12/18 02:20:45;;;;;;;34.53;26.87;;;-9.20;99.90;;;;;;5095775;28;20248;-66
2022/12/18 02:23:17;;;;;;;30.63;25.73;;;-9.20;99.90;;;;;;5095157;28;20216;-65
2022/12/18 02:26:15;;;;;;;28.47;25.03;;;-9.20;99.90;;;;;;5095717;28;20252;-65
2022/12/18 02:28:56;;;;;;;29.17;26.00;;;-9.30;99.90;;;;;;5055502;28;20204;-65
2022/12/18 02:31:26;;;;;;;35.83;28.10;;;-9.30;99.90;;;;;;5096230;28;20650;-65
2022/12/18 02:33:56;;;;;;;36.70;27.10;;;-9.30;99.90;;;;;;5095528;28;20200;-65
2022/12/18 02:36:23;;;;;;;32.77;25.77;;;-9.30;99.90;;;;;;5095934;28;20188;-65
2022/12/18 02:38:50;;;;;;;33.90;25.93;;;-9.30;99.90;;;;;;5095955;28;20596;-65
2022/12/18 02:41:17;;;;;;;29.40;24.13;;;-9.30;99.90;;;;;;5077220;28;20181;-65
2022/12/18 02:43:48;;;;;;;32.10;27.63;;;-9.30;99.90;;;;;;5097102;28;20199;-65
2022/12/18 02:46:35;;;;;;;28.87;25.87;;;-9.30;99.90;;;;;;5096170;28;20616;-66
2022/12/18 02:49:27;;;;;;;29.97;26.03;;;-9.40;99.90;;;;;;5095096;28;20177;-65
2022/12/18 02:51:55;;;;;;;26.63;23.80;;;-9.40;99.90;;;;;;5092033;28;20223;-65
2022/12/18 02:54:59;;;;;;;28.73;25.03;;;-9.40;99.90;;;;;;5076721;28;20231;-65
2022/12/18 02:57:52;;;;;;;26.37;23.73;;;-9.40;99.90;;;;;;5086819;28;20185;-66
2022/12/18 03:00:43;;;;;;;41.23;27.57;;;-9.50;99.90;;;;;;5088460;28;20177;-65
2022/12/18 03:03:18;;;;;;;39.53;29.23;;;-9.50;99.90;;;;;;5094894;28;20197;-65
2022/12/18 03:05:53;;;;;;;28.40;23.87;;;-9.60;99.90;;;;;;5076430;28;20165;-65
2022/12/18 03:08:28;;;;;;;27.03;24.17;;;-9.60;99.90;;;;;;5094911;28;20156;-65
2022/12/18 03:11:11;;;;;;;27.20;24.07;;;-9.60;99.90;;;;;;5076402;28;20181;-65
2022/12/18 03:13:51;;;;;;;30.67;25.60;;;-9.60;99.90;;;;;;5094697;28;20566;-65
2022/12/18 03:16:28;;;;;;;28.43;25.37;;;-9.60;99.90;;;;;;5076393;28;20636;-66
2022/12/18 03:19:21;;;;;;;26.47;23.87;;;-9.60;99.90;;;;;;5094687;28;20153;-65
2022/12/18 03:21:51;;;;;;;27.67;24.77;;;-9.50;99.90;;;;;;5092180;28;20193;-65
2022/12/18 03:24:19;;;;;;;34.33;25.13;;;-9.50;99.90;;;;;;5076267;28;20208;-65
2022/12/18 03:26:47;;;;;;;25.57;23.10;;;-9.60;99.90;;;;;;5076212;28;20176;-65
2022/12/18 03:29:21;;;;;;;27.50;24.20;;;-9.60;99.90;;;;;;5076193;28;20203;-65
2022/12/18 03:31:53;;;;;;;27.57;23.77;;;-9.60;99.90;;;;;;5076215;28;20196;-66
2022/12/18 03:34:31;;;;;;;27.00;23.47;;;-9.60;99.90;;;;;;5075886;28;20279;-65
2022/12/18 03:36:57;;;;;;;26.00;23.30;;;-9.60;99.90;;;;;;5094422;28;20157;-65
2022/12/18 03:39:24;;;;;;;29.43;23.10;;;-9.60;99.90;;;;;;5075991;28;20212;-65
2022/12/18 03:42:00;;;;;;;29.30;23.87;;;-9.60;99.90;;;;;;5094349;28;20177;-65
2022/12/18 03:44:32;;;;;;;32.10;26.23;;;-9.60;99.90;;;;;;5095061;28;20246;-65
2022/12/18 03:47:22;;;;;;;27.47;24.80;;;-9.60;99.90;;;;;;5075980;28;20179;-65
2022/12/18 03:50:14;;;;;;;26.87;23.20;;;-9.60;99.90;;;;;;5094058;28;20161;-65
2022/12/18 03:53:01;;;;;;;27.27;24.33;;;-9.50;99.90;;;;;;5075942;28;20210;-66
2022/12/18 03:55:32;;;;;;;27.23;23.53;;;-9.50;99.90;;;;;;5076016;28;20222;-65
2022/12/18 03:57:59;;;;;;;33.20;23.00;;;-9.50;99.90;;;;;;5094035;28;20688;-65
2022/12/18 04:00:25;;;;;;;24.77;22.47;;;-9.50;99.90;;;;;;5093849;28;20590;-65
2022/12/18 04:02:54;;;;;;;27.30;23.80;;;-9.50;99.90;;;;;;5075680;28;20199;-65
2022/12/18 04:05:20;;;;;;;25.57;22.40;;;-9.50;99.90;;;;;;5093985;28;20532;-65
2022/12/18 04:07:49;;;;;;;27.90;23.97;;;-9.50;99.90;;;;;;5093903;28;20637;-66
2022/12/18 04:10:16;;;;;;;25.70;23.00;;;-9.50;99.90;;;;;;5093865;28;20259;-66
2022/12/18 04:12:42;;;;;;;27.53;22.60;;;-9.60;99.90;;;;;;5075629;28;20188;-65
2022/12/18 04:15:09;;;;;;;24.20;21.93;;;-9.60;99.90;;;;;;5075448;28;20197;-65
2022/12/18 04:17:35;;;;;;;25.73;23.13;;;-9.60;99.90;;;;;;5075184;28;20260;-65
2022/12/18 04:20:01;;;;;;;27.77;23.33;;;-9.60;99.90;;;;;;5075431;28;20601;-66
2022/12/18 04:22:27;;;;;;;28.07;25.23;;;-9.60;99.90;;;;;;5075620;28;20192;-66
2022/12/18 04:24:53;;;;;;;28.17;22.33;;;-9.60;99.90;;;;;;5075681;28;20217;-65
2022/12/18 04:27:19;;;;;;;25.40;22.97;;;-9.70;99.90;;;;;;5093642;28;20221;-65
2022/12/18 04:29:44;;;;;;;24.63;22.07;;;-9.70;99.90;;;;;;5075386;28;20181;-65
2022/12/18 04:32:10;;;;;;;24.30;22.03;;;-9.70;99.90;;;;;;5093680;28;20177;-65
2022/12/18 04:34:36;;;;;;;26.00;23.40;;;-9.70;99.90;;;;;;5075217;28;20207;-65
2022/12/18 04:37:02;;;;;;;30.17;24.50;;;-9.70;99.90;;;;;;5075495;28;20234;-65
2022/12/18 04:39:27;;;;;;;28.10;22.63;;;-9.70;99.90;;;;;;5093598;28;20513;-66
2022/12/18 04:41:55;;;;;;;26.10;23.23;;;-9.70;99.90;;;;;;5080427;28;20719;-66
2022/12/18 04:44:21;;;;;;;28.20;24.13;;;-9.70;99.90;;;;;;5086403;28;20205;-66
2022/12/18 04:46:46;;;;;;;28.20;24.47;;;-9.70;99.90;;;;;;5091518;28;20670;-66
2022/12/18 04:49:12;;;;;;;26.03;23.73;;;-9.70;99.90;;;;;;5091649;28;20710;-66
2022/12/18 04:51:38;;;;;;;29.77;23.57;;;-9.70;99.90;;;;;;5092286;28;20218;-66
2022/12/18 04:54:04;;;;;;;30.70;23.60;;;-9.70;99.90;;;;;;5091223;28;20207;-66
2022/12/18 04:56:31;;;;;;;25.20;22.63;;;-9.70;99.90;;;;;;5093203;28;20663;-65
2022/12/18 04:58:57;;;;;;;24.03;21.80;;;-9.70;99.90;;;;;;5093465;28;20229;-66
2022/12/18 05:01:23;;;;;;;24.37;21.80;;;-9.70;99.90;;;;;;5093413;28;20260;-65
2022/12/18 05:03:50;;;;;;;23.77;21.80;;;-9.70;99.90;;;;;;5093286;28;20233;-66
2022/12/18 05:06:16;;;;;;;26.00;22.73;;;-9.70;99.90;;;;;;5092203;28;20272;-65
2022/12/18 05:08:42;;;;;;;24.50;22.00;;;-9.60;99.90;;;;;;5093540;28;20210;-66
2022/12/18 05:11:10;;;;;;;23.60;21.13;;;-9.70;99.90;;;;;;5087297;28;20284;-65
2022/12/18 05:13:37;;;;;;;24.37;22.23;;;-9.60;99.90;;;;;;5075075;28;20274;-65
2022/12/18 05:16:04;;;;;;;23.43;21.17;;;-9.60;99.90;;;;;;5093327;28;20165;-65
2022/12/18 05:18:30;;;;;;;23.30;21.07;;;-9.60;99.90;;;;;;5093283;28;20173;-65
2022/12/18 05:20:56;;;;;;;24.77;22.37;;;-9.60;99.90;;;;;;5092912;28;20622;-66
2022/12/18 05:23:23;;;;;;;22.53;20.53;;;-9.60;99.90;;;;;;5092959;28;20286;-65
2022/12/18 05:25:58;;;;;;;29.83;22.83;;;-9.60;99.90;;;;;;5074964;28;20206;-65
2022/12/18 05:28:25;;;;;;;24.27;21.87;;;-9.60;99.90;;;;;;5095552;28;20176;-66
2022/12/18 05:30:55;;;;;;;22.97;20.97;;;-9.60;99.90;;;;;;5096963;28;20184;-65
2022/12/18 05:33:23;;;;;;;25.10;21.93;;;-9.60;99.90;;;;;;5096655;28;20668;-65
2022/12/18 05:35:56;;;;;;;24.30;22.17;;;-9.60;99.90;;;;;;5096656;28;20181;-65
2022/12/18 05:38:24;;;;;;;24.67;22.37;;;-9.50;99.90;;;;;;5097126;28;20185;-65
2022/12/18 05:40:50;;;;;;;23.37;21.03;;;-9.50;99.90;;;;;;5096759;28;20192;-65
2022/12/18 05:43:17;;;;;;;22.23;20.03;;;-9.60;99.90;;;;;;5078261;28;20189;-65
2022/12/18 05:45:43;;;;;;;24.63;22.23;;;-9.60;99.90;;;;;;5096738;28;20169;-66
2022/12/18 05:48:09;;;;;;;23.13;21.23;;;-9.60;99.90;;;;;;5096691;28;20198;-65
2022/12/18 05:50:40;;;;;;;22.80;20.70;;;-9.60;99.90;;;;;;5096384;28;20165;-65
2022/12/18 05:53:06;;;;;;;24.17;22.13;;;-9.60;99.90;;;;;;5078511;28;20605;-65
2022/12/18 05:55:35;;;;;;;22.67;20.33;;;-9.70;99.90;;;;;;5096646;28;20681;-65
2022/12/18 05:58:03;;;;;;;21.60;19.87;;;-9.70;99.90;;;;;;5097518;28;20216;-65
2022/12/18 06:00:30;;;;;;;22.10;19.80;;;-9.70;99.90;;;;;;5096614;28;20173;-66
2022/12/18 06:02:55;;;;;;;22.50;20.23;;;-9.70;99.90;;;;;;5078251;28;20193;-65
2022/12/18 06:05:21;;;;;;;23.10;20.73;;;-9.70;99.90;;;;;;5077984;28;20200;-65
2022/12/18 06:07:47;;;;;;;25.47;23.10;;;-9.70;99.90;;;;;;5096076;28;20176;-65
2022/12/18 06:10:13;;;;;;;22.70;20.50;;;-9.70;99.90;;;;;;5077594;28;20177;-65
2022/12/18 06:12:38;;;;;;;23.33;21.13;;;-9.80;99.90;;;;;;5077455;28;20586;-66
2022/12/18 06:15:05;;;;;;;24.57;21.70;;;-9.80;99.90;;;;;;5077401;28;20217;-65
2022/12/18 06:17:31;;;;;;;21.93;20.20;;;-9.70;99.90;;;;;;5077485;28;20256;-65
2022/12/18 06:19:57;;;;;;;20.73;19.13;;;-9.70;99.90;;;;;;5095603;28;20174;-65
2022/12/18 06:22:23;;;;;;;23.17;20.93;;;-9.70;99.90;;;;;;5077153;28;20219;-66
2022/12/18 06:24:49;;;;;;;21.67;19.70;;;-9.70;99.90;;;;;;5095382;28;20276;-65
2022/12/18 06:27:15;;;;;;;21.80;20.10;;;-9.70;99.90;;;;;;5095749;28;20612;-66
2022/12/18 06:29:40;;;;;;;20.67;19.10;;;-9.70;99.90;;;;;;5095658;28;20223;-66
2022/12/18 06:32:06;;;;;;;23.37;21.10;;;-9.60;99.90;;;;;;5077337;28;20185;-66
2022/12/18 06:34:33;;;;;;;23.37;21.27;;;-9.70;99.90;;;;;;5095195;28;20203;-67
2022/12/18 06:36:59;;;;;;;25.40;21.47;;;-9.70;99.90;;;;;;5095312;28;20169;-67
2022/12/18 06:39:27;;;;;;;23.13;21.23;;;-9.70;99.90;;;;;;5094821;28;20652;-67
2022/12/18 06:41:52;;;;;;;23.67;21.50;;;-9.70;99.90;;;;;;5095175;28;20190;-67
2022/12/18 06:44:18;;;;;;;21.57;19.80;;;-9.70;99.90;;;;;;5077123;28;20680;-67
2022/12/18 06:46:44;;;;;;;21.53;19.47;;;-9.70;99.90;;;;;;5096386;28;20195;-67
2022/12/18 06:49:10;;;;;;;20.80;19.00;;;-9.70;99.90;;;;;;5094838;28;20181;-66
2022/12/18 06:51:35;;;;;;;21.00;18.77;;;-9.60;99.90;;;;;;5095307;28;20173;-66
2022/12/18 06:54:01;;;;;;;22.40;20.27;;;-9.60;99.90;;;;;;5076444;28;20254;-66
2022/12/18 06:56:27;;;;;;;22.43;20.53;;;-9.50;99.90;;;;;;5076666;28;20181;-66
2022/12/18 06:58:54;;;;;;;21.67;19.73;;;-9.60;99.90;;;;;;5094828;28;20168;-66
2022/12/18 07:01:21;;;;;;;21.50;19.60;;;-9.60;99.90;;;;;;5094873;28;20633;-66
2022/12/18 07:03:47;;;;;;;22.33;20.33;;;-9.60;99.90;;;;;;5076424;28;20280;-66
2022/12/18 07:06:18;;;;;;;22.03;20.27;;;-9.60;99.90;;;;;;5094579;28;20591;-67
2022/12/18 07:08:46;;;;;;;22.27;20.23;;;-9.50;99.90;;;;;;5094560;28;20726;-67
2022/12/18 07:11:12;;;;;;;23.00;20.63;;;-9.50;99.90;;;;;;5094485;28;20181;-67
2022/12/18 07:13:38;;;;;;;22.60;20.50;;;-9.50;99.90;;;;;;5094406;28;20195;-67
2022/12/18 07:16:16;;;;;;;22.47;20.47;;;-9.50;99.90;;;;;;5076350;28;20184;-67
2022/12/18 07:18:43;;;;;;;21.30;19.70;;;-9.50;99.90;;;;;;5094453;28;20161;-67
2022/12/18 07:21:14;;;;;;;20.90;19.37;;;-9.50;99.90;;;;;;5076009;28;20181;-67
2022/12/18 07:23:40;;;;;;;21.07;19.47;;;-9.40;99.90;;;;;;5094230;28;20209;-67
2022/12/18 07:26:13;;;;;;;22.03;20.33;;;-9.40;99.90;;;;;;5094387;28;20197;-67
2022/12/18 07:28:40;;;;;;;23.00;21.30;;;-9.30;99.90;;;;;;5076351;28;20161;-67
2022/12/18 07:31:08;;;;;;;22.87;21.07;;;-9.30;99.90;;;;;;5075999;28;20216;-67
2022/12/18 07:33:34;;;;;;;24.17;22.10;;;-9.40;99.90;;;;;;5094508;28;20333;-71
2022/12/18 07:36:05;;;;;;;25.07;22.47;;;-9.40;99.90;;;;;;5076030;28;20181;-71
2022/12/18 07:38:32;;;;;;;21.83;19.70;;;-9.40;99.90;;;;;;5076077;28;20217;-67
2022/12/18 07:41:02;;;;;;;26.00;23.37;;;-9.40;99.90;;;;;;5094125;28;20169;-67
2022/12/18 07:43:28;;;;;;;25.73;22.87;;;-9.40;99.90;;;;;;5075781;28;20680;-68
2022/12/18 07:45:54;;;;;;;24.47;22.20;;;-9.30;99.90;;;;;;5094334;28;20176;-67
2022/12/18 07:48:19;;;;;;;24.17;21.97;;;-9.30;99.90;;;;;;5093983;28;20251;-67
2022/12/18 07:50:45;;;;;;;23.27;20.97;;;-9.20;99.90;;;;;;5093414;28;20169;-67
2022/12/18 07:53:11;;;;;;;23.97;21.97;;;-9.20;99.90;;;;;;5093672;28;20683;-67
2022/12/18 07:55:37;;;;;;;27.07;24.67;;;-9.10;99.90;;;;;;5093613;28;20708;-67
2022/12/18 07:58:04;;;;;;;25.70;23.30;;;-9.10;99.90;;;;;;5093708;28;20248;-67
2022/12/18 08:00:30;;;;;;;25.90;23.43;;;-9.00;99.90;;;;;;5093762;28;20169;-65
2022/12/18 08:02:57;;;;;;;28.10;24.73;;;-9.00;99.90;;;;;;5093581;28;20189;-65
2022/12/18 08:05:23;;;;;;;23.87;21.73;;;-8.90;99.90;;;;;;5093509;28;20176;-65
2022/12/18 08:07:49;;;;;;;25.27;22.83;;;-8.90;99.90;;;;;;5093611;28;20177;-65
2022/12/18 08:10:15;;;;;;;24.50;22.03;;;-8.90;99.90;;;;;;5093464;28;20233;-66
2022/12/18 08:12:40;;;;;;;21.83;20.03;;;-8.80;99.90;;;;;;5093639;28;20177;-65
2022/12/18 08:15:07;;;;;;;21.27;19.23;;;-8.70;99.90;;;;;;5093358;28;20192;-65
2022/12/18 08:17:32;;;;;;;21.00;19.23;;;-8.60;99.90;;;;;;5093389;28;20177;-65
2022/12/18 08:19:58;;;;;;;21.77;19.80;;;-8.50;99.90;;;;;;5093565;28;20173;-65
2022/12/18 08:22:24;;;;;;;34.27;30.73;;;-8.40;99.90;;;;;;5075015;28;20192;-65
2022/12/18 08:24:50;;;;;;;24.20;21.97;;;-8.20;99.90;;;;;;5093213;28;20272;-65
2022/12/18 08:27:16;;;;;;;24.87;22.47;;;-8.20;99.90;;;;;;5093838;28;20180;-65
2022/12/18 08:29:41;;;;;;;32.43;25.53;;;-8.00;99.90;;;;;;5075365;28;20181;-65
2022/12/18 08:32:07;;;;;;;31.80;25.70;;;-7.90;99.90;;;;;;5093720;28;20165;-67
2022/12/18 08:34:33;;;;;;;27.70;24.33;;;-7.80;99.90;;;;;;5093132;28;20203;-66
2022/12/18 08:36:59;;;;;;;25.07;22.50;;;-7.70;99.90;;;;;;5094184;28;20173;-66
2022/12/18 08:39:24;;;;;;;22.53;20.57;;;-7.50;99.90;;;;;;5075144;28;20173;-66
2022/12/18 08:44:37;;;;;;;21.50;19.70;;;-7.30;99.90;;;;;;5093588;28;20235;-66
2022/12/18 08:47:03;;;;;;;20.23;18.73;;;-7.10;99.90;;;;;;5093582;28;20542;-66
2022/12/18 08:49:29;;;;;;;22.27;19.97;;;-6.90;99.90;;;;;;5093191;28;20201;-66
2022/12/18 08:51:57;;;;;;;21.37;19.40;;;-6.80;99.90;;;;;;5075253;28;20203;-66
2022/12/18 08:54:23;;;;;;;21.80;19.80;;;-6.60;99.90;;;;;;5075054;28;20201;-66
2022/12/18 08:56:49;;;;;;;23.37;20.93;;;-6.40;99.90;;;;;;5075202;28;20172;-66
2022/12/18 08:59:16;;;;;;;21.50;19.57;;;-6.20;99.90;;;;;;5093210;28;20180;-66
2022/12/18 09:01:42;;;;;;;20.70;18.93;;;-6.10;99.90;;;;;;5075032;28;20183;-66
2022/12/18 09:04:09;;;;;;;21.60;19.63;;;-5.90;99.90;;;;;;5096554;28;20743;-66
2022/12/18 09:06:35;;;;;;;19.47;17.87;;;-5.80;99.90;;;;;;5097504;28;20153;-66
2022/12/18 09:09:02;;;;;;;22.27;20.17;;;-5.70;99.90;;;;;;5097487;28;20667;-66
2022/12/18 09:11:29;;;;;;;24.10;20.90;;;-5.60;99.90;;;;;;5078855;28;20276;-66
2022/12/18 09:13:55;;;;;;;21.83;19.77;;;-5.30;99.90;;;;;;5096946;28;20201;-66
2022/12/18 09:16:22;;;;;;;20.70;18.57;;;-5.20;99.90;;;;;;5096967;28;20177;-66
2022/12/18 09:18:48;;;;;;;20.87;18.67;;;-5.00;99.90;;;;;;5097043;28;20192;-66
2022/12/18 09:21:16;;;;;;;20.17;18.03;;;-4.90;99.90;;;;;;5096876;28;20625;-66
2022/12/18 09:23:42;;;;;;;18.87;17.33;;;-4.70;99.90;;;;;;5096688;28;20232;-66
2022/12/18 09:26:08;;;;;;;18.90;17.13;;;-4.60;99.90;;;;;;5096946;28;20169;-66
2022/12/18 09:28:34;;;;;;;17.93;16.43;;;-4.40;99.90;;;;;;5096895;28;20183;-66
2022/12/18 09:31:06;;;;;;;16.67;15.30;;;-4.30;99.90;;;;;;5096858;28;20173;-66
2022/12/18 09:33:31;;;;;;;17.93;16.43;;;-4.10;99.90;;;;;;5097283;28;20193;-67
2022/12/18 09:35:57;;;;;;;18.60;17.00;;;-3.80;99.90;;;;;;5078440;28;20578;-67
2022/12/18 09:38:23;;;;;;;16.73;15.53;;;-3.70;99.90;;;;;;5095110;28;20185;-68
2022/12/18 09:40:57;;;;;;;17.23;15.93;;;-3.50;99.90;;;;;;5095279;28;20236;-67
2022/12/18 09:43:29;;;;;;;17.03;15.50;;;-3.40;99.90;;;;;;5096598;28;20180;-68
2022/12/18 09:46:06;;;;;;;16.83;15.50;;;-3.30;99.90;;;;;;5076318;28;20185;-67
2022/12/18 09:48:38;;;;;;;16.60;15.10;;;-3.20;99.90;;;;;;5077953;28;20172;-69
2022/12/18 09:51:21;;;;;;;15.63;14.37;;;-3.00;99.90;;;;;;5078982;28;20282;-68
2022/12/18 09:53:53;;;;;;;14.80;13.70;;;-2.70;99.90;;;;;;5095779;28;20695;-67
2022/12/18 09:56:22;;;;;;;14.47;13.43;;;-2.40;99.90;;;;;;5096498;28;20158;-67
2022/12/18 09:59:01;;;;;;;15.07;13.90;;;-2.30;99.90;;;;;;5096421;28;20169;-67
2022/12/18 10:01:28;;;;;;;14.90;13.80;;;-2.10;99.90;;;;;;5096505;28;20182;-68
2022/12/18 10:03:54;;;;;;;14.93;13.73;;;-2.00;99.90;;;;;;5096262;28;20189;-68
2022/12/18 10:06:38;;;;;;;15.57;14.43;;;-1.90;99.90;;;;;;5096194;28;20161;-68
2022/12/18 10:09:03;;;;;;;14.57;13.27;;;-1.80;99.90;;;;;;5078020;28;20162;-68
2022/12/18 10:12:03;;;;;;;14.57;13.47;;;-1.70;99.90;;;;;;5094770;28;20682;-68
2022/12/18 10:14:42;;;;;;;14.77;13.53;;;-1.50;99.90;;;;;;5044169;28;20349;-68
2022/12/18 10:17:30;;;;;;;14.00;12.87;;;-1.40;99.90;;;;;;5077817;28;20264;-68
2022/12/18 10:20:04;;;;;;;13.47;12.47;;;-1.30;99.90;;;;;;5095970;28;20176;-68
2022/12/18 10:22:35;;;;;;;13.70;12.50;;;-1.20;99.90;;;;;;5077588;28;20188;-69
2022/12/18 10:25:22;;;;;;;13.90;12.80;;;-1.00;99.90;;;;;;5095780;28;20184;-68
2022/12/18 10:27:51;;;;;;;13.87;12.87;;;-0.90;99.90;;;;;;5095901;28;20163;-68
2022/12/18 10:30:21;;;;;;;13.50;12.47;;;-0.80;99.90;;;;;;5095726;28;20175;-68
2022/12/18 10:32:47;;;;;;;13.60;12.60;;;-0.70;99.90;;;;;;5095943;28;20228;-69
2022/12/18 10:35:24;;;;;;;13.10;12.27;;;-0.60;99.90;;;;;;5077843;28;20221;-68
2022/12/18 10:38:20;;;;;;;13.33;12.33;;;-0.50;99.90;;;;;;5077390;28;20252;-68
2022/12/18 10:41:25;;;;;;;13.60;12.50;;;-0.50;99.90;;;;;;5095735;28;20226;-68
2022/12/18 10:44:18;;;;;;;12.60;11.90;;;-0.30;99.90;;;;;;5057068;28;20205;-68
2022/12/18 10:46:50;;;;;;;13.93;12.80;;;-0.20;99.90;;;;;;5095607;28;20153;-68
2022/12/18 10:49:27;;;;;;;14.37;13.33;;;-0.20;99.90;;;;;;5095105;28;20211;-69
2022/12/18 10:52:15;;;;;;;15.37;14.17;;;-0.20;99.90;;;;;;5095542;28;20185;-68
2022/12/18 10:54:48;;;;;;;14.47;13.30;;;-0.20;99.90;;;;;;5095098;28;20203;-68
2022/12/18 10:57:16;;;;;;;13.47;12.40;;;-0.10;99.90;;;;;;5077079;28;20172;-68
2022/12/18 10:59:57;;;;;;;13.70;12.57;;;-0.10;99.90;;;;;;5076932;28;20174;-68
2022/12/18 11:02:28;;;;;;;13.17;12.27;;;-0.10;99.90;;;;;;5076971;28;20538;-68
2022/12/18 11:04:54;;;;;;;12.97;12.13;;;-0.10;99.90;;;;;;5077187;28;20628;-68
2022/12/18 11:07:20;;;;;;;13.00;12.10;;;0.00;99.90;;;;;;5076828;28;20211;-68
2022/12/18 11:10:00;;;;;;;14.20;13.10;;;0.00;99.90;;;;;;5094985;28;20238;-68
2022/12/18 11:12:28;;;;;;;13.97;12.83;;;0.00;99.90;;;;;;5095578;28;20176;-68
2022/12/18 11:14:56;;;;;;;13.50;12.60;;;0.00;99.90;;;;;;5076491;28;20197;-68
2022/12/18 11:17:32;;;;;;;14.30;13.13;;;0.10;99.90;;;;;;5094694;28;20197;-68
2022/12/18 11:20:35;;;;;;;14.77;13.37;;;0.10;99.90;;;;;;5094795;28;20633;-68
2022/12/18 11:23:13;;;;;;;13.07;12.07;;;0.20;99.90;;;;;;5094629;28;20570;-68
2022/12/18 11:25:39;;;;;;;13.27;12.17;;;0.20;99.90;;;;;;5094796;28;20157;-68
2022/12/18 11:28:38;;;;;;;14.20;13.03;;;0.20;99.90;;;;;;5094574;28;20672;-68
2022/12/18 11:31:27;;;;;;;13.00;12.10;;;0.20;99.90;;;;;;5076553;28;20649;-68
2022/12/18 11:34:34;;;;;;;13.07;11.90;;;0.30;99.90;;;;;;5076546;28;20204;-68
2022/12/18 11:37:02;;;;;;;14.77;13.37;;;0.30;99.90;;;;;;5033178;28;20179;-68
2022/12/18 11:39:36;;;;;;;13.53;12.43;;;0.30;99.90;;;;;;5032934;28;20171;-68
2022/12/18 11:42:34;;;;;;;14.40;12.77;;;0.40;99.90;;;;;;5062645;28;20289;-68
2022/12/18 11:45:15;;;;;;;13.60;12.60;;;0.40;99.90;;;;;;5089687;28;20200;-68
2022/12/18 11:48:02;;;;;;;13.47;12.17;;;0.40;99.90;;;;;;5094826;28;20256;-68
2022/12/18 11:50:36;;;;;;;13.27;12.20;;;0.40;99.90;;;;;;5094297;28;20177;-68
2022/12/18 11:53:02;;;;;;;14.60;13.20;;;0.30;99.90;;;;;;5094218;28;20664;-68
2022/12/18 11:55:46;;;;;;;20.33;16.53;;;0.30;99.90;;;;;;5075911;28;20221;-68
2022/12/18 11:58:36;;;;;;;13.90;12.70;;;0.30;99.90;;;;;;5076209;28;20235;-68
2022/12/18 12:01:22;;;;;;;13.53;12.40;;;0.30;99.90;;;;;;5093982;28;20196;-68
2022/12/18 12:04:02;;;;;;;12.80;11.90;;;0.30;99.90;;;;;;5093998;28;20268;-68
2022/12/18 12:06:40;;;;;;;12.50;11.60;;;0.30;99.90;;;;;;5075591;28;20536;-68
2022/12/18 12:09:35;;;;;;;12.90;11.90;;;0.30;99.90;;;;;;5094371;28;20164;-68
2022/12/18 12:12:19;;;;;;;13.17;12.07;;;0.30;99.90;;;;;;5093858;28;20184;-68
2022/12/18 12:15:00;;;;;;;12.47;11.47;;;0.40;99.90;;;;;;5075632;28;20212;-68
2022/12/18 12:17:34;;;;;;;12.80;11.90;;;0.40;99.90;;;;;;5094209;28;20210;-68
2022/12/18 12:20:12;;;;;;;12.27;11.37;;;0.40;99.90;;;;;;5093684;28;20152;-68
2022/12/18 12:22:45;;;;;;;12.43;11.53;;;0.50;99.90;;;;;;5093478;28;20196;-68
2022/12/18 12:25:40;;;;;;;14.07;12.97;;;0.50;99.90;;;;;;5093959;28;20165;-68
2022/12/18 12:28:25;;;;;;;12.67;11.73;;;0.50;99.90;;;;;;5093566;28;20173;-68
2022/12/18 12:31:14;;;;;;;13.73;12.67;;;0.60;99.90;;;;;;5094149;28;20528;-68
2022/12/18 12:33:51;;;;;;;13.27;12.17;;;0.60;99.90;;;;;;5093517;28;20228;-68
2022/12/18 12:36:25;;;;;;;13.23;12.23;;;0.70;99.90;;;;;;5093306;28;20250;-68
2022/12/18 12:39:05;;;;;;;12.20;11.30;;;0.70;99.90;;;;;;5093461;28;20173;-68
2022/12/18 12:44:27;;;;;;;12.40;11.40;;;0.70;99.90;;;;;;5093681;28;20254;-68
2022/12/18 12:46:59;;;;;;;12.17;11.17;;;0.80;99.90;;;;;;5093327;28;20165;-68
2022/12/18 12:49:28;;;;;;;11.57;10.67;;;0.70;99.90;;;;;;5093627;28;20609;-68
2022/12/18 12:52:05;;;;;;;12.10;11.20;;;0.70;99.90;;;;;;5093294;28;20172;-68
2022/12/18 12:54:33;;;;;;;12.40;11.57;;;0.70;99.90;;;;;;5093159;28;20215;-68